x

Buoy F01 - West Penobscot Bay (44033) Wave Buoy

12:04 - Mon 27th Apr 2015 All times are EDT. -4 hours from GMT.

  • Sig Wave height 0.7ft
  • Wind
    9mph
  • Sea Temp 41°f
  • Aire Temp 44°f
  • Sea Pressure 1000.3mb
  • Buoy F01 - West Penobscot Bay
  • Buoy F01 - West Penobscot Bay

More Historic Weather Station data

Upgrade to MSW Pro to gain access to the past 30 days of data for over 8000 Wavebouys and Weather Stations around the globe.

Join Pro

Comparision Forecast

View Surf forecast
   
lun 04/27 12:04 0.7ft  -  9
mph
1000.3mb 41f 44f
dom 04/26 11:04 0.7ft  -  4 7 mph 1000.4mb 42f 44f
10:04 0.7ft  -  7
mph
1000.6mb 42f 43f
9:04 1ft 8s 7 9 mph 1000.9mb 42f 43f
8:04 0.7ft  -  9
mph
1001.1mb 42f 43f
7:04 1ft 11s 7 9 mph 1001.1mb 42f 44f
6:04 0.7ft  -  4 7 mph 1000.8mb 42f 45f
5:04 1ft 8s 4
mph
1000.7mb 42f 45f
4:04 1ft 8s 4
mph
1000.8mb 43f 45f
3:04 1ft 8s 7
mph
1001.1mb 42f 44f
2:04 0.7ft  -  4
mph
1001.7mb 43f 46f
1:04 1ft 8s 4 7 mph 1002.2mb 43f 44f
12:04 1ft 11s  -  2 mph 1002.5mb 42f 44f
11:04 1ft 11s 4
mph
1002.5mb 42f 43f
10:04 0.7ft  -  7 9 mph 1002.6mb 41f 42f
9:04 0.7ft  -  7 9 mph 1002.6mb 41f 41f
8:04 1ft 6s 4
mph
1002.6mb 41f 42f
7:04 1ft 11s 4 7 mph 1002.4mb 40f 41f
6:04 1ft 6s 4
mph
1002.2mb 41f 41f
5:04 1ft 8s 9
mph
1001.9mb 42f 42f
4:04 0.7ft  -  7
mph
1002mb 42f 42f
3:04 1ft 8s 4
mph
1002.5mb 42f 42f
2:04 1ft 8s 9
mph
1002.8mb 42f 43f
1:04 1ft 8s 7 9 mph 1003.3mb 42f 43f
12:04 1ft 8s 9 11 mph 1003.6mb 42f 44f
sáb 04/25 11:04 0.7ft  -  9
mph
1003.7mb 41f 44f
10:04 1ft 8s 9
mph
1004mb 42f 43f
9:04 0.7ft  -  9 11 mph 1003.8mb 42f 42f
8:04 1ft 3s 11 13 mph 1003.5mb 41f 42f
7:04 1ft 6s 13 16 mph 1003mb 42f 42f
6:04 1ft 11s 7 9 mph 1002.9mb 42f 44f
5:04 1ft 8s 9
mph
1003mb 41f 46f
4:04 0.7ft  -  11 16 mph 1002.8mb 42f 45f
3:04 1ft 8s 7 9 mph 1003mb 42f 42f
2:04 1.3ft 11s 4 7 mph 1003.3mb 42f 42f
1:04 1ft 8s 7
mph
1003.5mb 42f 41f
12:04 1ft 8s 4 7 mph 1003.4mb 41f 41f
11:04 1ft 8s 2 4 mph 1003.6mb 41f 41f
10:04 1ft 8s 4
mph
1003.7mb 41f 40f
9:04 0.7ft  -  11 13 mph 1003.7mb 41f 38f
8:04 0.7ft  -  13 16 mph 1003.9mb 40f 37f
7:04 0.7ft  -  11 13 mph 1004.1mb 40f 36f
6:04 1ft 5s 11 13 mph 1003.4mb 40f 35f
5:04 1ft 8s 11
mph
1003.1mb 40f 36f
4:04 1ft 8s 9 11 mph 1003.1mb 41f 36f
3:04 1ft 8s 7 9 mph 1003.2mb 41f 36f
2:04 1.3ft 8s 13 16 mph 1003.3mb 41f 37f
1:04 1ft 8s 11 13 mph 1003.8mb 41f 37f
12:04 1ft 8s 11 13 mph 1004.1mb 41f 37f
vie 04/24 11:04 1.3ft 8s 11 13 mph 1004.2mb 41f 37f
10:04 1.3ft 2s 13 18 mph 1004.5mb 42f 37f
9:04 1.3ft 2s 18 22 mph 1004.4mb 42f 38f
8:04 1.6ft 3s 22 25 mph 1003.6mb 42f 40f
7:04 2ft 8s 18 22 mph 1002.8mb 42f 42f
6:04 1.6ft 3s 18 22 mph 1002.2mb 42f 43f
5:04 1.6ft 2s 20 25 mph 1001.5mb 42f 44f
4:04 1.6ft 3s 16 18 mph 1000.6mb 42f 46f
3:04 2ft 8s 16 18 mph 1000.2mb 42f 46f
2:04 2ft 8s 13 18 mph 1000.3mb 42f 46f
1:04 2ft 8s 13 20 mph 1000.5mb 42f 46f
12:04 2ft 8s 16 18 mph 1000.9mb 42f 44f
11:04 2.5ft 8s 11 16 mph 1001.2mb 41f 43f
9:04 1.6ft 6s 7 9 mph 1001.6mb 40f 40f
8:04 1.3ft 8s 11 13 mph 1001.5mb 40f 38f
7:04 2ft 8s 11 13 mph 1001.1mb 40f 38f
6:04 1.6ft 8s 9 11 mph 1000.9mb 40f 38f
5:04 2ft 8s 11 13 mph 1000.8mb 40f 38f
4:04 1.6ft 8s 9 11 mph 1000.4mb 40f 38f
3:04 2ft 8s 7 9 mph 1000.3mb 41f 39f
2:04 1.6ft 8s 7 9 mph 1000.5mb 41f 40f
1:04 2ft 8s 7 9 mph 1000.7mb 41f 41f
12:04 2.5ft 8s 9 11 mph 1000.9mb 41f 41f
jue 04/23 11:04 2ft 8s 9
mph
1000.9mb 40f 40f
10:04 2.5ft 8s 11 13 mph 1000.9mb 40f 41f
9:04 2.5ft 8s 16 18 mph 1000.9mb 41f 40f
8:04 2.5ft 11s 13 16 mph 1000.4mb 40f 42f
7:04 2.5ft 11s 7 13 mph 999.9mb 41f 42f
6:04 2.5ft 11s 11 16 mph 999.3mb 41f 42f
5:04 2.5ft 6s 11 13 mph 998.9mb 41f 43f
4:04 2.5ft 5s 11 13 mph 998.4mb 42f 42f
3:04 3ft 6s 13 16 mph 998.6mb 41f 42f
1:04 2.5ft 6s 13 16 mph 998.6mb 41f 41f
12:04 3ft 11s 13 16 mph 999mb 41f 41f
11:04 2.5ft 6s 11 16 mph 999.5mb 40f 42f
10:04 3.5ft 11s 13 16 mph 999.6mb 40f 41f
9:04 3.5ft 11s 13 18 mph 999.3mb 40f 42f
8:04 4ft 5s 11 13 mph 998.9mb 40f 42f
7:04 3.5ft 6s 18 20 mph 997.8mb 40f 41f
6:04 3.5ft 6s 18 20 mph 996.5mb 40f 42f